createdAt,value
2016-07-15T00:00:28.995Z,0
2016-07-15T00:01:28.970Z,0
2016-07-15T00:02:28.945Z,0
2016-07-15T00:03:28.921Z,0
2016-07-15T00:04:28.900Z,0
2016-07-15T00:05:28.882Z,0
2016-07-15T00:06:28.856Z,0
2016-07-15T00:07:28.831Z,0
2016-07-15T00:08:28.812Z,0
2016-07-15T00:09:28.792Z,0
2016-07-15T00:10:28.770Z,0
2016-07-15T00:11:28.743Z,0
2016-07-15T00:12:28.724Z,0
2016-07-15T00:13:28.701Z,0
2016-07-15T00:14:28.684Z,0
2016-07-15T00:15:28.663Z,0
2016-07-15T00:16:28.645Z,0
2016-07-15T00:17:29.310Z,0
2016-07-15T00:18:28.596Z,0
2016-07-15T00:19:28.572Z,0
2016-07-15T00:20:28.553Z,0
2016-07-15T00:21:28.535Z,0
2016-07-15T00:22:28.517Z,0
2016-07-15T00:23:28.482Z,0
2016-07-15T00:24:28.465Z,0
2016-07-15T00:25:28.448Z,0
2016-07-15T00:26:28.418Z,0
2016-07-15T00:27:28.400Z,0
2016-07-15T00:28:28.376Z,0
2016-07-15T00:29:28.355Z,0
2016-07-15T00:30:28.337Z,0
2016-07-15T00:31:28.317Z,0
2016-07-15T00:32:28.288Z,0
2016-07-15T00:33:28.268Z,0
2016-07-15T00:34:28.246Z,0
2016-07-15T00:35:28.221Z,0
2016-07-15T00:36:28.218Z,0
2016-07-15T00:37:28.180Z,0
2016-07-15T00:38:28.161Z,0
2016-07-15T00:39:28.135Z,0
2016-07-15T00:40:28.112Z,0
2016-07-15T00:41:28.089Z,0
2016-07-15T00:42:28.068Z,0
2016-07-15T00:43:28.046Z,0
2016-07-15T00:44:28.029Z,0
2016-07-15T00:45:28.003Z,0
2016-07-15T00:46:27.978Z,0
2016-07-15T00:47:27.957Z,0
2016-07-15T00:48:27.940Z,0
2016-07-15T00:49:27.918Z,0
2016-07-15T00:50:27.893Z,0
2016-07-15T00:51:27.872Z,0
2016-07-15T00:52:27.850Z,0
2016-07-15T00:53:27.829Z,0
2016-07-15T00:54:27.810Z,0
2016-07-15T00:55:27.785Z,0
2016-07-15T00:56:27.764Z,0
2016-07-15T00:57:27.741Z,0
2016-07-15T00:58:27.723Z,0
2016-07-15T00:59:27.701Z,0
2016-07-15T01:00:27.679Z,0
2016-07-15T01:01:27.656Z,0
2016-07-15T01:02:27.626Z,0
2016-07-15T01:03:27.610Z,0
2016-07-15T01:04:27.587Z,0
2016-07-15T01:05:27.570Z,0
2016-07-15T01:06:27.541Z,0
2016-07-15T01:07:27.520Z,0
2016-07-15T01:08:27.501Z,0
2016-07-15T01:09:27.483Z,0
2016-07-15T01:10:27.451Z,0
2016-07-15T01:11:27.429Z,0
2016-07-15T01:12:27.406Z,0
2016-07-15T01:13:27.389Z,0
2016-07-15T01:14:27.364Z,0
2016-07-15T01:15:27.350Z,0
2016-07-15T01:16:27.320Z,0
2016-07-15T01:17:27.293Z,0
2016-07-15T01:18:27.279Z,0
2016-07-15T01:19:27.250Z,0
2016-07-15T01:20:27.234Z,0
2016-07-15T01:21:27.216Z,0
2016-07-15T01:22:27.192Z,0
2016-07-15T01:23:27.168Z,0
2016-07-15T01:24:27.148Z,0
2016-07-15T01:25:27.124Z,0
2016-07-15T01:26:27.107Z,0
2016-07-15T01:27:27.081Z,0
2016-07-15T01:28:27.058Z,0
2016-07-15T01:29:27.031Z,0
2016-07-15T01:30:27.014Z,0
2016-07-15T01:31:26.991Z,0
2016-07-15T01:32:26.970Z,0
2016-07-15T01:33:26.945Z,0
2016-07-15T01:34:26.921Z,0
2016-07-15T01:35:26.902Z,0
2016-07-15T01:36:26.890Z,0
2016-07-15T01:37:26.853Z,0
2016-07-15T01:38:26.837Z,0
2016-07-15T01:39:26.817Z,0
2016-07-15T01:40:26.802Z,0
2016-07-15T01:41:26.770Z,0
2016-07-15T01:42:26.746Z,0
2016-07-15T01:43:26.727Z,0
2016-07-15T01:44:26.709Z,0
2016-07-15T01:45:26.678Z,0
2016-07-15T01:46:26.660Z,0
2016-07-15T01:47:26.638Z,0
2016-07-15T01:48:26.610Z,0
2016-07-15T01:49:26.592Z,0
2016-07-15T01:50:26.583Z,0
2016-07-15T01:51:26.542Z,0
2016-07-15T01:52:26.531Z,0
2016-07-15T01:53:26.503Z,0
2016-07-15T01:54:26.483Z,0
2016-07-15T01:55:26.461Z,0
2016-07-15T01:56:26.442Z,0
2016-07-15T01:57:26.418Z,0
2016-07-15T01:58:26.395Z,0
2016-07-15T01:59:26.372Z,0
2016-07-15T02:00:26.354Z,0
2016-07-15T02:01:26.335Z,0
2016-07-15T02:02:26.305Z,0
2016-07-15T02:03:26.279Z,0
2016-07-15T02:04:26.266Z,0
2016-07-15T02:05:26.241Z,0
2016-07-15T02:06:26.217Z,0
2016-07-15T02:07:26.192Z,0
2016-07-15T02:08:26.175Z,0
2016-07-15T02:09:26.165Z,0
2016-07-15T02:10:26.137Z,0
2016-07-15T02:11:26.107Z,0
2016-07-15T02:12:26.085Z,0
2016-07-15T02:13:26.059Z,0
2016-07-15T02:14:26.039Z,0
2016-07-15T02:15:26.015Z,0
2016-07-15T02:16:26.001Z,0
2016-07-15T02:17:26.667Z,0
2016-07-15T02:18:25.947Z,0
2016-07-15T02:19:25.933Z,0
2016-07-15T02:20:25.906Z,0
2016-07-15T02:21:25.885Z,0
2016-07-15T02:22:26.560Z,0
2016-07-15T02:23:25.841Z,0
2016-07-15T02:24:25.826Z,0
2016-07-15T02:25:25.793Z,0
2016-07-15T02:26:25.775Z,0
2016-07-15T02:27:25.755Z,0
2016-07-15T02:28:25.729Z,0
2016-07-15T02:29:25.710Z,0
2016-07-15T02:30:25.688Z,0
2016-07-15T02:31:25.665Z,0
2016-07-15T02:32:25.643Z,0
2016-07-15T02:33:25.617Z,0
2016-07-15T02:34:25.600Z,0
2016-07-15T02:35:25.576Z,0
2016-07-15T02:36:25.554Z,0
2016-07-15T02:37:25.532Z,0
2016-07-15T02:38:25.503Z,0
2016-07-15T02:39:25.499Z,0
2016-07-15T02:40:25.461Z,0
2016-07-15T02:41:25.443Z,0
2016-07-15T02:42:25.419Z,0
2016-07-15T02:43:25.393Z,0
2016-07-15T02:44:25.378Z,0
2016-07-15T02:45:25.352Z,0
2016-07-15T02:46:25.326Z,0
2016-07-15T02:47:25.311Z,0
2016-07-15T02:48:25.282Z,0
2016-07-15T02:49:25.267Z,0
2016-07-15T02:50:25.249Z,0
2016-07-15T02:51:25.215Z,0
2016-07-15T02:52:25.198Z,0
2016-07-15T02:53:25.173Z,0
2016-07-15T02:54:25.156Z,0
2016-07-15T02:55:25.130Z,0
2016-07-15T02:56:25.112Z,0
2016-07-15T02:57:25.085Z,0
2016-07-15T02:58:25.067Z,0
2016-07-15T02:59:25.043Z,0
2016-07-15T03:00:25.014Z,0
2016-07-15T03:01:25.001Z,0
2016-07-15T03:02:24.973Z,0
2016-07-15T03:03:24.953Z,0
2016-07-15T03:04:24.934Z,0
2016-07-15T03:05:24.907Z,0
2016-07-15T03:06:24.891Z,0
2016-07-15T03:07:24.862Z,0
2016-07-15T03:08:24.842Z,0
2016-07-15T03:09:24.820Z,0
2016-07-15T03:10:24.794Z,0
2016-07-15T03:11:24.770Z,0
2016-07-15T03:12:24.747Z,0
2016-07-15T03:13:24.734Z,0
2016-07-15T03:14:24.709Z,0
2016-07-15T03:15:24.679Z,0
2016-07-15T03:16:24.671Z,0
2016-07-15T03:17:24.641Z,0
2016-07-15T03:18:25.319Z,0
2016-07-15T03:19:24.595Z,0
2016-07-15T03:20:24.573Z,0
2016-07-15T03:21:24.551Z,0
2016-07-15T03:22:24.535Z,5
2016-07-15T03:23:25.200Z,5
2016-07-15T03:24:25.177Z,5
2016-07-15T03:25:24.460Z,5
2016-07-15T03:26:24.441Z,5
2016-07-15T03:27:24.416Z,5
2016-07-15T03:28:24.393Z,5
2016-07-15T03:29:24.372Z,5
2016-07-15T03:30:24.357Z,10
2016-07-15T03:31:24.325Z,10
2016-07-15T03:32:24.311Z,10
2016-07-15T03:33:24.280Z,10
2016-07-15T03:34:24.265Z,10
2016-07-15T03:35:24.234Z,10
2016-07-15T03:36:24.215Z,15
2016-07-15T03:37:24.197Z,15
2016-07-15T03:38:24.177Z,15
2016-07-15T03:39:24.150Z,15
2016-07-15T03:40:24.129Z,20
2016-07-15T03:41:24.104Z,20
2016-07-15T03:42:24.079Z,25
2016-07-15T03:43:24.073Z,25
2016-07-15T03:44:24.037Z,25
2016-07-15T03:45:24.015Z,30
2016-07-15T03:46:24.004Z,30
2016-07-15T03:47:23.966Z,35
2016-07-15T03:48:23.948Z,35
2016-07-15T03:49:23.930Z,35
2016-07-15T03:50:23.900Z,40
2016-07-15T03:51:23.884Z,45
2016-07-15T03:52:23.860Z,45
2016-07-15T03:53:23.833Z,45
2016-07-15T03:54:23.821Z,50
2016-07-15T03:55:23.797Z,50
2016-07-15T03:56:23.771Z,50
2016-07-15T03:57:24.437Z,55
2016-07-15T03:58:23.733Z,55
2016-07-15T03:59:23.702Z,60
2016-07-15T04:00:23.676Z,65
2016-07-15T04:01:23.657Z,65
2016-07-15T04:02:23.640Z,70
2016-07-15T04:03:23.613Z,75
2016-07-15T04:04:23.592Z,75
2016-07-15T04:05:23.574Z,80
2016-07-15T04:06:24.242Z,85
2016-07-15T04:07:23.532Z,85
2016-07-15T04:08:23.501Z,90
2016-07-15T04:09:23.484Z,95
2016-07-15T04:10:23.462Z,95
2016-07-15T04:11:23.486Z,100
2016-07-15T04:12:23.413Z,105
2016-07-15T04:13:23.388Z,105
2016-07-15T04:14:23.368Z,110
2016-07-15T04:15:23.350Z,110
2016-07-15T04:16:23.320Z,110
2016-07-15T04:17:23.306Z,110
2016-07-15T04:18:23.284Z,115
2016-07-15T04:19:23.259Z,115
2016-07-15T04:20:23.240Z,120
2016-07-15T04:21:23.216Z,120
2016-07-15T04:22:23.194Z,120
2016-07-15T04:23:23.172Z,125
2016-07-15T04:24:23.150Z,125
2016-07-15T04:25:23.817Z,130
2016-07-15T04:26:23.104Z,130
2016-07-15T04:27:23.077Z,130
2016-07-15T04:28:23.068Z,135
2016-07-15T04:29:23.045Z,140
2016-07-15T04:30:23.024Z,150
2016-07-15T04:31:22.999Z,155
2016-07-15T04:32:22.969Z,160
2016-07-15T04:33:22.957Z,160
2016-07-15T04:34:22.929Z,165
2016-07-15T04:35:22.905Z,165
2016-07-15T04:36:22.886Z,170
2016-07-15T04:37:22.863Z,170
2016-07-15T04:38:22.841Z,175
2016-07-15T04:39:22.819Z,180
2016-07-15T04:40:22.793Z,180
2016-07-15T04:41:22.777Z,185
2016-07-15T04:42:22.755Z,190
2016-07-15T04:43:22.724Z,190
2016-07-15T04:44:22.720Z,195
2016-07-15T04:45:22.686Z,200
2016-07-15T04:46:22.674Z,205
2016-07-15T04:47:22.646Z,215
2016-07-15T04:48:22.617Z,220
2016-07-15T04:49:22.597Z,225
2016-07-15T04:50:22.580Z,230
2016-07-15T04:51:22.555Z,240
2016-07-15T04:52:22.527Z,240
2016-07-15T04:53:22.513Z,240
2016-07-15T04:54:23.193Z,245
2016-07-15T04:55:22.476Z,245
2016-07-15T04:56:22.450Z,250
2016-07-15T04:57:22.425Z,250
2016-07-15T04:58:22.416Z,260
2016-07-15T04:59:22.382Z,260
2016-07-15T05:00:22.363Z,270
2016-07-15T05:01:22.340Z,275
2016-07-15T05:02:22.315Z,280
2016-07-15T05:03:22.300Z,270
2016-07-15T05:04:22.283Z,270
2016-07-15T05:05:22.252Z,240
2016-07-15T05:06:22.235Z,240
2016-07-15T05:07:22.214Z,240
2016-07-15T05:08:22.187Z,240
2016-07-15T05:09:22.173Z,270
2016-07-15T05:10:22.143Z,290
2016-07-15T05:11:22.134Z,315
2016-07-15T05:12:22.102Z,340
2016-07-15T05:13:22.084Z,360
2016-07-15T05:14:22.064Z,355
2016-07-15T05:15:22.038Z,360
2016-07-15T05:16:22.019Z,385
2016-07-15T05:17:21.999Z,415
2016-07-15T05:18:22.031Z,415
2016-07-15T05:19:21.956Z,425
2016-07-15T05:20:21.932Z,420
2016-07-15T05:21:21.916Z,415
2016-07-15T05:22:21.892Z,405
2016-07-15T05:23:21.872Z,400
2016-07-15T05:24:21.858Z,400
2016-07-15T05:25:21.827Z,365
2016-07-15T05:26:21.809Z,350
2016-07-15T05:27:21.787Z,335
2016-07-15T05:28:21.772Z,335
2016-07-15T05:29:21.748Z,335
2016-07-15T05:30:21.724Z,345
2016-07-15T05:31:21.701Z,360
2016-07-15T05:32:21.682Z,370
2016-07-15T05:33:21.665Z,380
2016-07-15T05:34:21.643Z,380
2016-07-15T05:35:21.620Z,370
2016-07-15T05:36:21.600Z,360
2016-07-15T05:37:21.577Z,355
2016-07-15T05:38:21.551Z,360
2016-07-15T05:39:21.547Z,370
2016-07-15T05:40:21.524Z,375
2016-07-15T05:41:21.493Z,385
2016-07-15T05:42:21.490Z,375
2016-07-15T05:43:21.458Z,365
2016-07-15T05:44:21.439Z,360
2016-07-15T05:45:21.414Z,360
2016-07-15T05:46:21.397Z,355
2016-07-15T05:47:21.370Z,350
2016-07-15T05:48:21.348Z,335
2016-07-15T05:49:21.346Z,330
2016-07-15T05:50:21.321Z,325
2016-07-15T05:51:21.299Z,325
2016-07-15T05:52:21.269Z,330
2016-07-15T05:53:21.252Z,335
2016-07-15T05:54:21.227Z,335
2016-07-15T05:55:21.210Z,335
2016-07-15T05:56:21.189Z,335
2016-07-15T05:57:21.169Z,340
2016-07-15T05:58:21.144Z,355
2016-07-15T05:59:21.133Z,370
2016-07-15T06:00:21.099Z,395
2016-07-15T06:01:21.080Z,415
2016-07-15T06:02:21.063Z,440
2016-07-15T06:03:21.040Z,465
2016-07-15T06:04:21.020Z,480
2016-07-15T06:05:21.007Z,490
2016-07-15T06:06:20.976Z,505
2016-07-15T06:07:20.958Z,530
2016-07-15T06:08:20.936Z,575
2016-07-15T06:09:20.923Z,620
2016-07-15T06:10:20.893Z,655
2016-07-15T06:11:20.875Z,650
2016-07-15T06:12:20.860Z,625
2016-07-15T06:13:20.829Z,600
2016-07-15T06:14:20.813Z,575
2016-07-15T06:15:20.791Z,580
2016-07-15T06:16:20.777Z,610
2016-07-15T06:17:20.753Z,595
2016-07-15T06:18:20.728Z,600
2016-07-15T06:19:20.715Z,670
2016-07-15T06:20:20.702Z,740
2016-07-15T06:21:20.671Z,1065
2016-07-15T06:22:20.652Z,1275
2016-07-15T06:23:20.629Z,645
2016-07-15T06:24:20.616Z,1430
2016-07-15T06:25:20.643Z,1470
2016-07-15T06:26:20.572Z,1095
2016-07-15T06:27:20.555Z,1010
2016-07-15T06:28:20.544Z,1575
2016-07-15T06:29:20.518Z,900
2016-07-15T06:30:20.493Z,705
2016-07-15T06:31:20.560Z,1535
2016-07-15T06:32:20.472Z,1585
2016-07-15T06:33:20.440Z,1110
2016-07-15T06:34:20.422Z,820
2016-07-15T06:35:20.418Z,1795
2016-07-15T06:36:20.384Z,1650
2016-07-15T06:37:20.367Z,1710
2016-07-15T06:38:20.354Z,1675
2016-07-15T06:39:20.330Z,895
2016-07-15T06:40:20.313Z,1275
2016-07-15T06:41:20.301Z,905
2016-07-15T06:42:20.280Z,1405
2016-07-15T06:43:20.263Z,785
2016-07-15T06:44:20.255Z,770
2016-07-15T06:45:20.296Z,715
2016-07-15T06:46:21.067Z,845
2016-07-15T06:47:20.204Z,1025
2016-07-15T06:48:21.871Z,795
2016-07-15T06:49:20.157Z,890
2016-07-15T06:50:20.203Z,830
2016-07-15T06:51:20.926Z,760
2016-07-15T06:52:20.233Z,790
2016-07-15T06:53:20.085Z,730
2016-07-15T06:54:20.122Z,845
2016-07-15T06:55:20.817Z,730
2016-07-15T06:56:20.770Z,760
2016-07-15T06:57:20.183Z,855
2016-07-15T06:58:21.582Z,805
2016-07-15T06:59:20.814Z,825
2016-07-15T07:00:22.126Z,875
2016-07-15T07:01:19.985Z,985
2016-07-15T07:02:19.953Z,1450
2016-07-15T07:03:20.636Z,990
2016-07-15T07:04:20.635Z,1010
2016-07-15T07:05:20.575Z,1410
2016-07-15T07:06:19.862Z,980
2016-07-15T07:07:19.878Z,925
2016-07-15T07:08:19.829Z,805
2016-07-15T07:09:19.805Z,860
2016-07-15T07:10:19.787Z,920
2016-07-15T07:11:21.192Z,1090
2016-07-15T07:12:19.769Z,1155
2016-07-15T07:13:20.433Z,1075
2016-07-15T07:14:19.723Z,1715
2016-07-15T07:15:20.420Z,1055
2016-07-15T07:16:20.382Z,1050
2016-07-15T07:17:20.364Z,1120
2016-07-15T07:18:19.654Z,1440
2016-07-15T07:19:19.637Z,1030
2016-07-15T07:20:20.311Z,975
2016-07-15T07:21:20.299Z,990
2016-07-15T07:22:19.593Z,1075
2016-07-15T07:23:20.274Z,1045
2016-07-15T07:24:19.564Z,1205
2016-07-15T07:25:20.229Z,1460
2016-07-15T07:26:20.458Z,1355
2016-07-15T07:27:19.518Z,1585
2016-07-15T07:28:19.482Z,1265
2016-07-15T07:29:19.469Z,1175
2016-07-15T07:30:19.457Z,1110
2016-07-15T07:31:19.443Z,1100
2016-07-15T07:32:19.422Z,1040
2016-07-15T07:33:19.409Z,995
2016-07-15T07:34:19.389Z,910
2016-07-15T07:35:19.368Z,840
2016-07-15T07:36:19.365Z,770
2016-07-15T07:37:19.346Z,790
2016-07-15T07:38:19.320Z,770
2016-07-15T07:39:20.089Z,770
2016-07-15T07:40:19.291Z,855
2016-07-15T07:41:19.272Z,1130
2016-07-15T07:42:19.488Z,1270
2016-07-15T07:43:19.239Z,1320
2016-07-15T07:44:19.226Z,1050
2016-07-15T07:45:19.207Z,1210
2016-07-15T07:46:19.892Z,2245
2016-07-15T07:47:19.173Z,735
2016-07-15T07:48:19.154Z,720
2016-07-15T07:49:19.167Z,1465
2016-07-15T07:50:19.132Z,2085
2016-07-15T07:51:19.157Z,2315
2016-07-15T07:52:19.207Z,2270
2016-07-15T07:53:19.081Z,2230
2016-07-15T07:54:19.072Z,2250
2016-07-15T07:55:19.042Z,2240
2016-07-15T07:56:19.842Z,2325
2016-07-15T07:57:19.065Z,2315
2016-07-15T07:58:18.997Z,2370
2016-07-15T07:59:20.437Z,2530
2016-07-15T08:00:18.975Z,2520
2016-07-15T08:01:18.958Z,1075
2016-07-15T08:02:19.635Z,1665
2016-07-15T08:03:19.178Z,935
2016-07-15T08:04:18.915Z,1000
2016-07-15T08:05:18.898Z,1345
2016-07-15T08:06:18.956Z,1295
2016-07-15T08:07:18.870Z,1775
2016-07-15T08:08:18.876Z,2780
2016-07-15T08:09:18.848Z,2885
2016-07-15T08:10:18.827Z,1525
2016-07-15T08:11:18.830Z,2720
2016-07-15T08:12:18.852Z,960
2016-07-15T08:13:19.529Z,2825
2016-07-15T08:14:19.639Z,2820
2016-07-15T08:15:18.763Z,2550
2016-07-15T08:16:18.750Z,2950
2016-07-15T08:17:18.738Z,1575
2016-07-15T08:18:18.729Z,2405
2016-07-15T08:19:18.724Z,1150
2016-07-15T08:20:19.601Z,1135
2016-07-15T08:21:18.685Z,2965
2016-07-15T08:22:19.414Z,895
2016-07-15T08:23:18.692Z,775
2016-07-15T08:24:18.690Z,780
2016-07-15T08:25:18.642Z,1555
2016-07-15T08:26:18.742Z,2815
2016-07-15T08:27:18.605Z,825
2016-07-15T08:28:18.598Z,2825
2016-07-15T08:29:18.662Z,2730
2016-07-15T08:30:18.626Z,2905
2016-07-15T08:31:20.009Z,2835
2016-07-15T08:32:18.562Z,2965
2016-07-15T08:33:18.588Z,3175
2016-07-15T08:34:18.550Z,3360
2016-07-15T08:35:18.555Z,1675
2016-07-15T08:36:18.492Z,2060
2016-07-15T08:37:19.241Z,1160
2016-07-15T08:38:18.474Z,980
2016-07-15T08:39:18.490Z,770
2016-07-15T08:40:19.395Z,715
2016-07-15T08:41:18.454Z,715
2016-07-15T08:42:19.238Z,730
2016-07-15T08:43:18.508Z,730
2016-07-15T08:44:18.436Z,685
2016-07-15T08:45:18.434Z,1515
2016-07-15T08:46:18.473Z,2770
2016-07-15T08:47:19.104Z,2145
2016-07-15T08:48:18.349Z,2765
2016-07-15T08:49:18.336Z,2800
2016-07-15T08:50:18.327Z,2770
2016-07-15T08:51:18.312Z,2920
2016-07-15T08:52:18.299Z,2480
2016-07-15T08:53:18.298Z,3175
2016-07-15T08:54:18.272Z,3195
2016-07-15T08:55:18.254Z,3475
2016-07-15T08:56:18.255Z,1675
2016-07-15T08:57:18.238Z,1600
2016-07-15T08:58:18.249Z,1255
2016-07-15T08:59:18.999Z,1090
2016-07-15T09:00:19.058Z,1025
2016-07-15T09:01:18.950Z,955
2016-07-15T09:02:18.180Z,930
2016-07-15T09:03:18.244Z,940
2016-07-15T09:04:18.193Z,995
2016-07-15T09:05:18.145Z,1465
2016-07-15T09:06:18.143Z,2185
2016-07-15T09:07:18.826Z,3495
2016-07-15T09:08:18.828Z,2270
2016-07-15T09:09:18.089Z,3215
2016-07-15T09:10:18.121Z,2700
2016-07-15T09:11:18.068Z,1255
2016-07-15T09:12:18.055Z,1055
2016-07-15T09:13:18.051Z,1015
2016-07-15T09:14:18.032Z,1490
2016-07-15T09:15:18.099Z,3030
2016-07-15T09:16:18.082Z,1830
2016-07-15T09:17:18.043Z,1455
2016-07-15T09:18:18.053Z,2880
2016-07-15T09:19:18.134Z,1910
2016-07-15T09:20:18.003Z,2620
2016-07-15T09:21:17.959Z,1530
2016-07-15T09:22:17.963Z,1920
2016-07-15T09:23:17.917Z,3285
2016-07-15T09:24:17.902Z,3375
2016-07-15T09:25:17.894Z,2870
2016-07-15T09:26:17.905Z,2700
2016-07-15T09:27:17.926Z,1255
2016-07-15T09:28:17.910Z,1175
2016-07-15T09:29:17.892Z,1115
2016-07-15T09:30:17.861Z,1070
2016-07-15T09:31:17.907Z,1115
2016-07-15T09:32:17.923Z,1275
2016-07-15T09:33:18.544Z,3015
2016-07-15T09:34:17.816Z,1470
2016-07-15T09:35:17.830Z,1745
2016-07-15T09:36:17.823Z,1700
2016-07-15T09:37:17.798Z,1605
2016-07-15T09:38:18.555Z,1610
2016-07-15T09:39:17.739Z,1560
2016-07-15T09:40:17.714Z,1475
2016-07-15T09:41:17.714Z,1365
2016-07-15T09:42:17.690Z,1345
2016-07-15T09:43:17.687Z,1240
2016-07-15T09:44:17.668Z,1275
2016-07-15T09:45:17.654Z,1360
2016-07-15T09:46:17.645Z,1355
2016-07-15T09:47:17.633Z,1275
2016-07-15T09:48:17.617Z,1340
2016-07-15T09:49:17.607Z,1450
2016-07-15T09:50:17.589Z,2185
2016-07-15T09:51:17.638Z,1815
2016-07-15T09:52:18.255Z,2460
2016-07-15T09:53:17.549Z,1605
2016-07-15T09:54:18.228Z,2895
2016-07-15T09:55:18.232Z,2335
2016-07-15T09:56:17.509Z,2350
2016-07-15T09:57:17.496Z,2220
2016-07-15T09:58:17.485Z,2615
2016-07-15T09:59:17.471Z,2870
2016-07-15T10:00:17.460Z,2935
2016-07-15T10:01:17.455Z,2915
2016-07-15T10:02:17.436Z,2970
2016-07-15T10:03:17.445Z,3055
2016-07-15T10:04:17.415Z,2145
2016-07-15T10:05:17.403Z,2610
2016-07-15T10:06:17.408Z,1525
2016-07-15T10:07:17.384Z,1620
2016-07-15T10:08:17.373Z,1970
2016-07-15T10:09:17.366Z,1300
2016-07-15T10:10:17.358Z,3145
2016-07-15T10:11:17.352Z,3170
2016-07-15T10:12:18.026Z,2445
2016-07-15T10:13:17.320Z,1290
2016-07-15T10:14:17.315Z,2755
2016-07-15T10:15:17.304Z,3475
2016-07-15T10:16:17.296Z,1220
2016-07-15T10:17:17.299Z,970
2016-07-15T10:18:17.276Z,1010
2016-07-15T10:19:17.265Z,3190
2016-07-15T10:20:17.260Z,960
2016-07-15T10:21:17.246Z,2440
2016-07-15T10:22:17.238Z,3215
2016-07-15T10:23:17.231Z,3275
2016-07-15T10:24:17.221Z,3330
2016-07-15T10:25:17.214Z,1310
2016-07-15T10:26:17.197Z,2035
2016-07-15T10:27:17.190Z,1545
2016-07-15T10:28:17.189Z,3420
2016-07-15T10:29:17.167Z,3595
2016-07-15T10:30:17.166Z,3610
2016-07-15T10:31:17.150Z,3660
2016-07-15T10:32:17.139Z,2450
2016-07-15T10:33:17.128Z,1120
2016-07-15T10:34:17.119Z,930
2016-07-15T10:35:17.107Z,1035
2016-07-15T10:36:17.176Z,1180
2016-07-15T10:37:17.084Z,1535
2016-07-15T10:38:17.767Z,2220
2016-07-15T10:39:17.066Z,1625
2016-07-15T10:40:17.055Z,1480
2016-07-15T10:41:17.054Z,1420
2016-07-15T10:42:17.038Z,1395
2016-07-15T10:43:17.107Z,1490
2016-07-15T10:44:17.699Z,1725
2016-07-15T10:45:16.990Z,1590
2016-07-15T10:46:16.987Z,1735
2016-07-15T10:47:16.974Z,1500
2016-07-15T10:48:16.965Z,1385
2016-07-15T10:49:16.951Z,1090
2016-07-15T10:50:16.967Z,1055
2016-07-15T10:51:16.930Z,1100
2016-07-15T10:52:16.910Z,1145
2016-07-15T10:53:16.908Z,1275
2016-07-15T10:54:16.887Z,1230
2016-07-15T10:55:16.867Z,1355
2016-07-15T10:56:16.864Z,1115
2016-07-15T10:57:16.869Z,1385
2016-07-15T10:58:16.835Z,3245
2016-07-15T10:59:17.089Z,2300
2016-07-15T11:00:16.812Z,2290
2016-07-15T11:01:16.795Z,3030
2016-07-15T11:02:16.787Z,2590
2016-07-15T11:03:16.779Z,3175
2016-07-15T11:04:16.765Z,1905
2016-07-15T11:05:16.751Z,2545
2016-07-15T11:06:16.735Z,2165
2016-07-15T11:07:16.725Z,1410
2016-07-15T11:08:16.712Z,2560
2016-07-15T11:09:16.702Z,1490
2016-07-15T11:10:16.693Z,2565
2016-07-15T11:11:16.686Z,3475
2016-07-15T11:12:16.680Z,2080
2016-07-15T11:13:16.676Z,3045
2016-07-15T11:14:16.653Z,4230
2016-07-15T11:15:17.326Z,2355
2016-07-15T11:16:16.630Z,2015
2016-07-15T11:17:16.623Z,2485
2016-07-15T11:18:16.616Z,2545
2016-07-15T11:19:16.604Z,3635
2016-07-15T11:20:16.749Z,3745
2016-07-15T11:21:16.583Z,2405
2016-07-15T11:22:16.578Z,3785
2016-07-15T11:23:16.567Z,1260
2016-07-15T11:24:17.254Z,1130
2016-07-15T11:25:16.553Z,1105
2016-07-15T11:26:16.543Z,1225
2016-07-15T11:27:16.540Z,1440
2016-07-15T11:28:16.528Z,3105
2016-07-15T11:29:16.524Z,3860
2016-07-15T11:30:16.702Z,2580
2016-07-15T11:31:16.532Z,3355
2016-07-15T11:32:16.489Z,2975
2016-07-15T11:33:16.487Z,1545
2016-07-15T11:34:16.478Z,1655
2016-07-15T11:35:16.472Z,3840
2016-07-15T11:36:16.456Z,4085
2016-07-15T11:37:16.449Z,3955
2016-07-15T11:38:16.443Z,3150
2016-07-15T11:39:16.428Z,1365
2016-07-15T11:40:16.424Z,1400
2016-07-15T11:41:16.417Z,1440
2016-07-15T11:42:17.101Z,1385
2016-07-15T11:43:16.398Z,1215
2016-07-15T11:44:16.390Z,1290
2016-07-15T11:45:16.386Z,1935
2016-07-15T11:46:16.367Z,1245
2016-07-15T11:47:16.359Z,1185
2016-07-15T11:48:16.347Z,1870
2016-07-15T11:49:16.340Z,3450
2016-07-15T11:50:16.336Z,3545
2016-07-15T11:51:16.319Z,2315
2016-07-15T11:52:16.306Z,3050
2016-07-15T11:53:17.002Z,3585
2016-07-15T11:54:16.294Z,3970
2016-07-15T11:55:16.277Z,4235
2016-07-15T11:56:16.274Z,4080
2016-07-15T11:57:16.265Z,3565
2016-07-15T11:58:16.252Z,2125
2016-07-15T11:59:16.249Z,2320
2016-07-15T12:00:16.243Z,2205
2016-07-15T12:01:16.231Z,1800
2016-07-15T12:02:16.232Z,2725
2016-07-15T12:03:16.219Z,4100
2016-07-15T12:04:16.312Z,3655
2016-07-15T12:05:16.206Z,2345
2016-07-15T12:06:16.199Z,3795
2016-07-15T12:07:16.188Z,3810
2016-07-15T12:08:16.179Z,1575
2016-07-15T12:09:16.170Z,1530
2016-07-15T12:10:16.174Z,1655
2016-07-15T12:11:16.161Z,2920
2016-07-15T12:12:16.149Z,3355
2016-07-15T12:13:16.147Z,1770
2016-07-15T12:14:16.142Z,1735
2016-07-15T12:15:16.140Z,1750
2016-07-15T12:16:16.121Z,1680
2016-07-15T12:17:16.109Z,1700
2016-07-15T12:18:16.105Z,1775
2016-07-15T12:19:16.171Z,1950
2016-07-15T12:20:16.090Z,2330
2016-07-15T12:21:16.765Z,2200
2016-07-15T12:22:16.071Z,2380
2016-07-15T12:23:16.057Z,2035
2016-07-15T12:24:16.051Z,2025
2016-07-15T12:25:16.040Z,1860
2016-07-15T12:26:16.033Z,1800
2016-07-15T12:27:16.019Z,1875
2016-07-15T12:28:16.015Z,2795
2016-07-15T12:29:16.004Z,2460
2016-07-15T12:30:16.002Z,3635
2016-07-15T12:31:15.986Z,2215
2016-07-15T12:32:15.989Z,1935
2016-07-15T12:33:15.969Z,2075
2016-07-15T12:34:15.962Z,2140
2016-07-15T12:35:15.951Z,1715
2016-07-15T12:36:15.944Z,1690
2016-07-15T12:37:15.940Z,1640
2016-07-15T12:38:15.924Z,1680
2016-07-15T12:39:15.914Z,2630
2016-07-15T12:40:15.906Z,1850
2016-07-15T12:41:15.898Z,1720
2016-07-15T12:42:15.882Z,1765
2016-07-15T12:43:15.879Z,1970
2016-07-15T12:44:15.868Z,1865
2016-07-15T12:45:15.863Z,2390
2016-07-15T12:46:15.851Z,1380
2016-07-15T12:47:15.839Z,1210
2016-07-15T12:48:15.832Z,1110
2016-07-15T12:49:15.820Z,1075
2016-07-15T12:50:15.817Z,970
2016-07-15T12:51:15.799Z,975
2016-07-15T12:52:15.796Z,985
2016-07-15T12:53:15.778Z,965
2016-07-15T12:54:15.770Z,935
2016-07-15T12:55:15.763Z,885
2016-07-15T12:56:15.746Z,840
2016-07-15T12:57:15.736Z,825
2016-07-15T12:58:15.726Z,825
2016-07-15T12:59:16.419Z,825
2016-07-15T13:00:15.705Z,825
2016-07-15T13:01:15.689Z,810
2016-07-15T13:02:15.682Z,790
2016-07-15T13:03:15.667Z,785
2016-07-15T13:04:15.652Z,770
2016-07-15T13:05:15.644Z,775
2016-07-15T13:06:15.631Z,780
2016-07-15T13:07:15.613Z,785
2016-07-15T13:08:15.599Z,815
2016-07-15T13:09:15.597Z,840
2016-07-15T13:10:15.587Z,860
2016-07-15T13:11:15.567Z,895
2016-07-15T13:12:15.549Z,945
2016-07-15T13:13:15.544Z,1015
2016-07-15T13:14:15.520Z,1095
2016-07-15T13:15:15.511Z,1185
2016-07-15T13:16:15.500Z,1280
2016-07-15T13:17:15.485Z,1300
2016-07-15T13:18:15.469Z,1320
2016-07-15T13:19:15.452Z,1335
2016-07-15T13:20:15.453Z,1325
2016-07-15T13:21:15.425Z,1350
2016-07-15T13:22:15.416Z,1345
2016-07-15T13:23:15.400Z,1380
2016-07-15T13:24:15.387Z,1345
2016-07-15T13:25:15.374Z,1330
2016-07-15T13:26:15.365Z,1310
2016-07-15T13:27:15.353Z,1295
2016-07-15T13:28:15.344Z,1360
2016-07-15T13:29:15.326Z,1550
2016-07-15T13:30:15.314Z,1630
2016-07-15T13:31:15.297Z,2320
2016-07-15T13:32:15.300Z,3085
2016-07-15T13:33:15.275Z,2795
2016-07-15T13:34:15.281Z,1590
2016-07-15T13:35:15.256Z,1525
2016-07-15T13:36:15.241Z,1335
2016-07-15T13:37:15.230Z,1335
2016-07-15T13:38:15.219Z,1295
2016-07-15T13:39:15.205Z,1240
2016-07-15T13:40:15.893Z,1155
2016-07-15T13:41:15.202Z,1125
2016-07-15T13:42:15.174Z,1210
2016-07-15T13:43:15.160Z,1255
2016-07-15T13:44:15.149Z,1375
2016-07-15T13:45:15.136Z,1415
2016-07-15T13:46:15.124Z,1340
2016-07-15T13:47:15.111Z,1275
2016-07-15T13:48:15.105Z,1245
2016-07-15T13:49:15.087Z,1320